createdAt,value
2023-04-04T00:01:37.881Z,98374.34
2023-04-04T00:04:43.236Z,98371.47
2023-04-04T00:07:49.157Z,98373.25
2023-04-04T00:10:58.021Z,98374.03
2023-04-04T00:14:00.671Z,98374.09
2023-04-04T00:17:03.596Z,98378.66
2023-04-04T00:20:07.030Z,98385.69
2023-04-04T00:23:11.477Z,98389.72
2023-04-04T00:26:14.159Z,98384.28
2023-04-04T00:29:17.894Z,98378.81
2023-04-04T00:32:21.130Z,98385.34
2023-04-04T00:35:24.070Z,98394.38
2023-04-04T00:38:26.761Z,98387.47
2023-04-04T00:41:31.731Z,98402.38
2023-04-04T00:44:36.875Z,98394.56
2023-04-04T00:47:40.094Z,98405.69
2023-04-04T00:50:42.848Z,98392.38
2023-04-04T00:53:46.989Z,98410.53
2023-04-04T00:56:55.600Z,98405.22
2023-04-04T00:59:59.850Z,98417.09
2023-04-04T01:03:03.068Z,98400.34
2023-04-04T01:06:07.477Z,98405.22
2023-04-04T01:09:10.610Z,98404.94
2023-04-04T01:12:13.585Z,98408.72
2023-04-04T01:15:16.553Z,98411.91
2023-04-04T01:18:22.409Z,98407.94
2023-04-04T01:21:25.117Z,98402.78
2023-04-04T01:24:29.427Z,98409.66
2023-04-04T01:27:35.008Z,98416.63
2023-04-04T01:30:47.293Z,98418.22
2023-04-04T01:34:00.954Z,98410.69
2023-04-04T01:37:08.075Z,98410.69
2023-04-04T01:40:19.216Z,98414.66
2023-04-04T01:43:24.625Z,98413.78
2023-04-04T01:46:32.268Z,98418.28
2023-04-04T01:49:35.859Z,98412.81
2023-04-04T01:52:40.048Z,98407.06
2023-04-04T01:55:43.094Z,98405.22
2023-04-04T01:58:46.090Z,98396.13
2023-04-04T02:01:49.000Z,98398.59
2023-04-04T02:04:51.702Z,98394.31
2023-04-04T02:07:57.039Z,98385.78
2023-04-04T02:11:10.136Z,98395.13
2023-04-04T02:14:13.161Z,98397.03
2023-04-04T02:17:16.569Z,98379.78
2023-04-04T02:20:19.839Z,98376.59
2023-04-04T02:23:22.551Z,98375.91
2023-04-04T02:26:25.354Z,98367.56
2023-04-04T02:29:28.100Z,98362.91
2023-04-04T02:32:30.790Z,98385.53
2023-04-04T02:35:33.784Z,98373.47
2023-04-04T02:38:36.727Z,98378.78
2023-04-04T02:41:41.948Z,98389.25
2023-04-04T02:44:44.627Z,98378.00
2023-04-04T02:47:51.756Z,98384.81
2023-04-04T02:50:59.323Z,98364.19
2023-04-04T02:54:03.382Z,98367.97
2023-04-04T02:57:13.374Z,98372.53
2023-04-04T03:00:16.315Z,98364.63
2023-04-04T03:03:19.079Z,98360.50
2023-04-04T03:06:23.560Z,98348.69
2023-04-04T03:09:26.581Z,98350.16
2023-04-04T03:12:29.262Z,98342.44
2023-04-04T03:15:32.466Z,98339.06
2023-04-04T03:18:35.237Z,98340.00
2023-04-04T03:21:38.069Z,98340.06
2023-04-04T03:24:41.742Z,98341.25
2023-04-04T03:27:44.601Z,98323.16
2023-04-04T03:30:54.025Z,98326.31
2023-04-04T03:33:56.827Z,98330.25
2023-04-04T03:37:00.229Z,98301.59
2023-04-04T03:40:03.045Z,98306.84
2023-04-04T03:43:09.042Z,98297.22
2023-04-04T03:46:11.953Z,98302.13
2023-04-04T03:49:14.557Z,98321.06
2023-04-04T03:52:17.595Z,98290.56
2023-04-04T03:55:20.308Z,98292.25
2023-04-04T03:58:23.693Z,98299.44
2023-04-04T04:01:27.355Z,98292.41
2023-04-04T04:04:30.453Z,98294.53
2023-04-04T04:07:35.969Z,98297.19
2023-04-04T04:10:39.866Z,98310.69
2023-04-04T04:13:42.772Z,98304.47
2023-04-04T04:16:45.420Z,98310.41
2023-04-04T04:19:52.933Z,98309.34
2023-04-04T04:22:56.104Z,98309.75
2023-04-04T04:25:59.032Z,98307.69
2023-04-04T04:29:03.665Z,98311.47
2023-04-04T04:32:08.755Z,98307.19
2023-04-04T04:35:17.111Z,98305.53
2023-04-04T04:38:21.130Z,98303.44
2023-04-04T04:41:25.172Z,98299.31
2023-04-04T04:44:28.509Z,98312.84
2023-04-04T04:47:32.999Z,98359.38
2023-04-04T04:50:39.781Z,98320.13
2023-04-04T04:53:45.878Z,98341.66
2023-04-04T04:56:49.635Z,98319.63
2023-04-04T04:59:52.727Z,98336.88
2023-04-04T05:02:57.172Z,98323.44
2023-04-04T05:06:10.462Z,98341.88
2023-04-04T05:09:14.798Z,98333.47
2023-04-04T05:12:18.383Z,98330.19
2023-04-04T05:15:26.224Z,98362.91
2023-04-04T05:18:29.145Z,98341.00
2023-04-04T05:21:32.621Z,98354.34
2023-04-04T05:24:37.050Z,98335.59
2023-04-04T05:27:41.080Z,98342.94
2023-04-04T05:30:44.030Z,98338.56
2023-04-04T05:33:51.526Z,98339.22
2023-04-04T05:37:11.694Z,98337.81
2023-04-04T05:40:15.234Z,98358.00
2023-04-04T05:43:21.228Z,98349.50
2023-04-04T05:46:36.345Z,98356.13
2023-04-04T05:49:40.191Z,98359.28
2023-04-04T05:52:43.204Z,98361.59
2023-04-04T05:55:53.788Z,98367.38
2023-04-04T05:59:00.312Z,98374.41
2023-04-04T06:02:08.066Z,98375.16
2023-04-04T06:05:14.856Z,98377.41
2023-04-04T06:08:17.916Z,98372.19
2023-04-04T06:11:22.967Z,98361.53
2023-04-04T06:14:26.493Z,98364.06
2023-04-04T06:17:29.673Z,98382.31
2023-04-04T06:20:32.975Z,98390.75
2023-04-04T06:23:37.998Z,98388.28
2023-04-04T06:26:43.148Z,98385.78
2023-04-04T06:29:45.996Z,98366.19
2023-04-04T06:32:53.402Z,98382.31
2023-04-04T06:36:00.651Z,98351.97
2023-04-04T06:39:03.468Z,98359.25
2023-04-04T06:42:06.473Z,98358.03
2023-04-04T06:45:11.349Z,98373.75
2023-04-04T06:48:14.133Z,98376.19
2023-04-04T06:51:16.886Z,98376.22
2023-04-04T06:54:21.426Z,98367.94
2023-04-04T06:57:24.148Z,98369.25
2023-04-04T07:00:26.876Z,98355.03
2023-04-04T07:03:29.983Z,98370.41
2023-04-04T07:06:32.875Z,98378.22
2023-04-04T07:09:35.645Z,98405.16
2023-04-04T07:12:38.384Z,98378.06
2023-04-04T07:15:41.303Z,98378.88
2023-04-04T07:18:44.705Z,98378.34
2023-04-04T07:21:47.530Z,98359.78
2023-04-04T07:24:50.736Z,98371.00
2023-04-04T07:27:59.698Z,98383.72
2023-04-04T07:31:08.658Z,98380.81
2023-04-04T07:34:11.885Z,98359.72
2023-04-04T07:37:14.837Z,98370.63
2023-04-04T07:40:19.195Z,98367.94
2023-04-04T07:43:21.927Z,98360.75
2023-04-04T07:46:24.719Z,98359.59
2023-04-04T07:49:27.463Z,98380.19
2023-04-04T07:52:30.561Z,98353.69
2023-04-04T07:55:33.236Z,98362.50
2023-04-04T07:58:36.948Z,98358.69
2023-04-04T08:01:39.637Z,98344.25
2023-04-04T08:04:42.490Z,98352.06
2023-04-04T08:07:45.246Z,98352.59
2023-04-04T08:10:49.554Z,98353.25
2023-04-04T08:13:52.197Z,98351.97
2023-04-04T08:16:55.022Z,98362.78
2023-04-04T08:19:58.603Z,98352.06
2023-04-04T08:23:01.761Z,98365.44
2023-04-04T08:26:04.747Z,98358.13
2023-04-04T08:29:07.937Z,98348.06
2023-04-04T08:32:17.308Z,98345.56
2023-04-04T08:35:20.196Z,98348.66
2023-04-04T08:38:22.950Z,98354.47
2023-04-04T08:41:27.084Z,98345.88
2023-04-04T08:44:34.135Z,98328.06
2023-04-04T08:47:38.964Z,98346.28
2023-04-04T08:50:43.036Z,98355.16
2023-04-04T08:53:46.216Z,98344.31
2023-04-04T08:56:50.246Z,98326.59
2023-04-04T08:59:54.816Z,98329.84
2023-04-04T09:03:06.348Z,98335.34
2023-04-04T09:06:09.485Z,98348.25
2023-04-04T09:09:12.644Z,98359.38
2023-04-04T09:12:19.079Z,98341.63
2023-04-04T09:15:22.180Z,98327.88
2023-04-04T09:18:25.005Z,98329.84
2023-04-04T09:21:29.733Z,98340.38
2023-04-04T09:24:42.902Z,98353.28
2023-04-04T09:27:45.997Z,98347.75
2023-04-04T09:30:49.637Z,98324.84
2023-04-04T09:33:52.520Z,98331.97
2023-04-04T09:36:55.436Z,98335.09
2023-04-04T09:39:58.470Z,98306.69
2023-04-04T09:43:02.629Z,98340.69
2023-04-04T09:46:06.532Z,98335.78
2023-04-04T09:49:20.686Z,98320.59
2023-04-04T09:52:23.577Z,98322.72
2023-04-04T09:55:36.819Z,98324.69
2023-04-04T09:58:46.685Z,98312.81
2023-04-04T10:01:56.026Z,98325.72
2023-04-04T10:05:06.181Z,98364.41
2023-04-04T10:08:22.440Z,98323.75
2023-04-04T10:11:34.123Z,98337.84
2023-04-04T10:14:37.269Z,98324.97
2023-04-04T10:17:42.265Z,98313.13
2023-04-04T10:20:46.445Z,98318.75
2023-04-04T10:23:49.716Z,98319.16
2023-04-04T10:26:53.924Z,98292.47
2023-04-04T10:29:57.741Z,98316.56
2023-04-04T10:33:06.634Z,98285.28
2023-04-04T10:36:10.094Z,98311.47
2023-04-04T10:39:23.308Z,98328.41
2023-04-04T10:42:27.311Z,98321.25
2023-04-04T10:45:32.353Z,98318.63
2023-04-04T10:48:35.424Z,98298.78
2023-04-04T10:51:48.893Z,98326.03
2023-04-04T10:54:59.113Z,98326.03
2023-04-04T10:58:02.412Z,98306.28
2023-04-04T11:01:08.632Z,98318.13
2023-04-04T11:04:21.100Z,98303.34
2023-04-04T11:07:29.702Z,98312.50
2023-04-04T11:10:37.548Z,98305.84
2023-04-04T11:13:41.989Z,98306.69
2023-04-04T11:16:47.000Z,98289.75
2023-04-04T11:20:00.390Z,98274.13
2023-04-04T11:23:04.253Z,98299.78
2023-04-04T11:26:08.973Z,98281.63
2023-04-04T11:29:21.264Z,98288.41
2023-04-04T11:32:34.930Z,98286.31
2023-04-04T11:35:41.758Z,98290.16
2023-04-04T11:38:50.186Z,98290.53
2023-04-04T11:41:52.993Z,98273.03
2023-04-04T11:44:55.587Z,98254.34
2023-04-04T11:47:59.960Z,98272.16
2023-04-04T11:51:04.388Z,98264.63
2023-04-04T11:54:16.989Z,98269.38
2023-04-04T11:57:21.524Z,98268.44
2023-04-04T12:00:35.310Z,98268.13
2023-04-04T12:03:39.200Z,98272.00
2023-04-04T12:06:43.272Z,98243.59
2023-04-04T12:09:46.242Z,98269.41
2023-04-04T12:12:50.324Z,98253.78
2023-04-04T12:15:54.629Z,98248.84
2023-04-04T12:19:02.774Z,98243.16
2023-04-04T12:22:06.288Z,98269.78
2023-04-04T12:25:10.391Z,98274.63
2023-04-04T12:28:13.376Z,98245.31
2023-04-04T12:31:19.002Z,98241.75
2023-04-04T12:37:33.604Z,98238.31
2023-04-04T12:40:39.170Z,98238.56
2023-04-04T12:43:42.811Z,98245.38
2023-04-04T12:46:47.678Z,98246.28
2023-04-04T12:49:57.792Z,98231.38
2023-04-04T12:53:30.184Z,98249.47
2023-04-04T12:56:56.993Z,98242.56
2023-04-04T13:00:11.633Z,98213.94
2023-04-04T13:03:42.990Z,98213.22
2023-04-04T13:06:49.431Z,98204.31
2023-04-04T13:10:05.001Z,98242.41
2023-04-04T13:13:44.107Z,98226.53
2023-04-04T13:17:03.871Z,98193.16
2023-04-04T13:20:57.026Z,98217.75
2023-04-04T13:24:11.329Z,98197.22
2023-04-04T13:27:21.832Z,98220.03
2023-04-04T13:30:24.629Z,98235.09
2023-04-04T13:33:27.690Z,98204.16
2023-04-04T13:36:30.636Z,98236.09
2023-04-04T13:39:33.583Z,98233.59
2023-04-04T13:42:36.643Z,98224.94
2023-04-04T13:45:39.534Z,98212.03
2023-04-04T13:48:43.195Z,98224.41
2023-04-04T13:51:46.087Z,98224.28
2023-04-04T13:54:52.224Z,98234.72
2023-04-04T13:57:55.252Z,98219.47
2023-04-04T14:00:58.200Z,98219.13
2023-04-04T14:04:07.331Z,98226.81
2023-04-04T14:07:16.212Z,98221.31
2023-04-04T14:10:19.133Z,98237.25
2023-04-04T14:13:22.816Z,98230.81
2023-04-04T14:16:25.791Z,98244.41
2023-04-04T14:19:28.701Z,98237.31
2023-04-04T14:22:31.901Z,98231.09
2023-04-04T14:25:35.206Z,98260.88
2023-04-04T14:28:39.140Z,98267.50
2023-04-04T14:31:42.539Z,98247.28
2023-04-04T14:34:45.632Z,98255.59
2023-04-04T14:37:50.417Z,98249.59
2023-04-04T14:40:53.250Z,98255.13
2023-04-04T14:43:56.345Z,98260.50
2023-04-04T14:46:59.369Z,98251.38
2023-04-04T14:50:02.401Z,98270.31
2023-04-04T14:53:05.189Z,98269.06
2023-04-04T14:56:10.843Z,98259.03
2023-04-04T14:59:14.416Z,98276.03
2023-04-04T15:02:17.299Z,98295.28
2023-04-04T15:05:20.321Z,98277.03
2023-04-04T15:08:23.250Z,98285.84
2023-04-04T15:11:28.061Z,98295.69
2023-04-04T15:14:31.427Z,98293.66
2023-04-04T15:17:34.395Z,98283.59
2023-04-04T15:20:40.847Z,98306.28
2023-04-04T15:23:43.866Z,98283.28
2023-04-04T15:26:47.224Z,98288.16
2023-04-04T15:29:50.437Z,98350.09
2023-04-04T15:32:54.493Z,98311.28
2023-04-04T15:35:57.521Z,98315.56
2023-04-04T15:39:01.632Z,98317.41
2023-04-04T15:42:06.142Z,98321.28
2023-04-04T15:45:10.340Z,98315.56
2023-04-04T15:48:13.656Z,98316.09
2023-04-04T15:51:17.416Z,98315.72
2023-04-04T15:54:20.294Z,98316.22
2023-04-04T15:57:27.488Z,98324.47
2023-04-04T16:00:30.451Z,98358.34
2023-04-04T16:03:33.778Z,98341.84
2023-04-04T16:06:37.757Z,98352.16
2023-04-04T16:09:44.686Z,98330.66
2023-04-04T16:12:47.544Z,98348.69
2023-04-04T16:15:50.578Z,98333.28
2023-04-04T16:18:53.637Z,98344.22
2023-04-04T16:21:57.028Z,98338.94
2023-04-04T16:24:59.919Z,98349.03
2023-04-04T16:28:02.720Z,98348.38
2023-04-04T16:31:06.174Z,98352.47
2023-04-04T16:34:10.313Z,98346.78
2023-04-04T16:37:16.925Z,98352.00
2023-04-04T16:40:20.428Z,98364.94
2023-04-04T16:43:23.456Z,98365.03
2023-04-04T16:46:29.298Z,98367.72
2023-04-04T16:49:32.330Z,98372.28
2023-04-04T16:52:35.456Z,98363.69
2023-04-04T16:55:38.387Z,98364.19
2023-04-04T16:58:41.709Z,98392.53
2023-04-04T17:01:44.485Z,98356.88
2023-04-04T17:04:47.466Z,98361.06
2023-04-04T17:07:50.478Z,98371.88
2023-04-04T17:10:53.567Z,98382.72
2023-04-04T17:13:56.764Z,98374.53
2023-04-04T17:17:02.966Z,98383.56
2023-04-04T17:20:06.855Z,98382.56
2023-04-04T17:23:10.267Z,98387.28
2023-04-04T17:26:13.334Z,98400.94
2023-04-04T17:29:16.473Z,98396.94
2023-04-04T17:32:20.023Z,98401.16
2023-04-04T17:35:22.973Z,98411.56
2023-04-04T17:38:25.860Z,98401.72
2023-04-04T17:41:31.280Z,98406.91
2023-04-04T17:44:34.028Z,98414.66
2023-04-04T17:47:36.797Z,98422.69
2023-04-04T17:50:40.265Z,98416.09
2023-04-04T17:53:43.661Z,98418.13
2023-04-04T17:56:47.447Z,98435.66
2023-04-04T17:59:50.503Z,98430.44
2023-04-04T18:02:53.710Z,98433.91
2023-04-04T18:05:56.886Z,98441.81
2023-04-04T18:09:01.807Z,98443.50
2023-04-04T18:12:04.733Z,98440.78
2023-04-04T18:15:08.168Z,98443.16
2023-04-04T18:18:11.198Z,98457.91
2023-04-04T18:21:14.380Z,98458.19
2023-04-04T18:24:17.334Z,98460.94
2023-04-04T18:27:20.363Z,98463.38
2023-04-04T18:30:23.747Z,98466.00
2023-04-04T18:33:27.775Z,98468.19
2023-04-04T18:36:31.377Z,98457.25
2023-04-04T18:39:34.420Z,98470.06
2023-04-04T18:42:37.464Z,98497.16
2023-04-04T18:45:42.176Z,98479.69
2023-04-04T18:48:45.078Z,98477.69
2023-04-04T18:51:48.083Z,98484.25
2023-04-04T18:54:53.387Z,98486.06
2023-04-04T18:57:56.679Z,98493.28
2023-04-04T19:00:59.772Z,98498.44
2023-04-04T19:04:06.242Z,98487.72
2023-04-04T19:07:11.872Z,98497.75
2023-04-04T19:10:15.993Z,98498.75
2023-04-04T19:13:19.142Z,98491.44
2023-04-04T19:16:22.108Z,98493.94
2023-04-04T19:19:25.307Z,98503.63
2023-04-04T19:22:28.228Z,98501.59
2023-04-04T19:25:30.959Z,98496.22
2023-04-04T19:28:33.916Z,98499.00
2023-04-04T19:31:36.822Z,98501.06
2023-04-04T19:34:39.586Z,98499.84
2023-04-04T19:37:42.367Z,98494.38
2023-04-04T19:40:49.915Z,98506.44
2023-04-04T19:43:52.767Z,98500.25
2023-04-04T19:46:55.801Z,98498.31
2023-04-04T19:49:58.626Z,98500.44
2023-04-04T19:53:01.559Z,98509.03
2023-04-04T19:56:08.665Z,98500.03
2023-04-04T19:59:37.119Z,98503.44
2023-04-04T20:02:48.328Z,98504.25
2023-04-04T20:05:56.488Z,98502.16
2023-04-04T20:09:01.539Z,98500.16
2023-04-04T20:12:05.740Z,98501.38
2023-04-04T20:15:14.981Z,98497.13
2023-04-04T20:18:24.939Z,98495.47
2023-04-04T20:21:29.091Z,98490.56
2023-04-04T20:24:32.178Z,98501.56
2023-04-04T20:27:34.831Z,98498.09
2023-04-04T20:30:38.209Z,98495.97
2023-04-04T20:33:41.605Z,98496.19
2023-04-04T20:36:44.635Z,98497.66
2023-04-04T20:39:55.266Z,98496.28
2023-04-04T20:42:58.472Z,98491.31
2023-04-04T20:46:01.651Z,98492.09
2023-04-04T20:49:04.857Z,98479.88
2023-04-04T20:52:07.958Z,98478.28
2023-04-04T20:55:14.154Z,98477.53
2023-04-04T20:58:36.202Z,98485.72
2023-04-04T21:01:39.162Z,98481.28
2023-04-04T21:04:46.026Z,98482.06
2023-04-04T21:07:48.912Z,98487.47
2023-04-04T21:10:54.082Z,98482.56
2023-04-04T21:13:57.385Z,98476.09
2023-04-04T21:17:00.247Z,98477.88
2023-04-04T21:20:09.547Z,98476.66
2023-04-04T21:23:32.085Z,98474.28
2023-04-04T21:26:37.372Z,98469.22
2023-04-04T21:29:43.232Z,98467.56
2023-04-04T21:32:46.205Z,98462.94
2023-04-04T21:35:50.988Z,98458.03
2023-04-04T21:39:00.985Z,98457.91
2023-04-04T21:42:07.948Z,98462.72
2023-04-04T21:45:11.755Z,98459.97
2023-04-04T21:48:14.726Z,98460.69
2023-04-04T21:51:17.684Z,98460.97
2023-04-04T21:54:20.640Z,98453.56
2023-04-04T21:57:29.206Z,98449.50
2023-04-04T22:00:32.425Z,98446.69
2023-04-04T22:03:37.506Z,98451.81
2023-04-04T22:06:40.443Z,98451.31
2023-04-04T22:09:46.957Z,98447.81
2023-04-04T22:12:50.367Z,98442.16
2023-04-04T22:15:59.164Z,98447.78
2023-04-04T22:19:02.052Z,98445.56
2023-04-04T22:22:05.685Z,98441.91
2023-04-04T22:25:10.716Z,98441.25
2023-04-04T22:28:13.414Z,98441.78
2023-04-04T22:31:16.676Z,98438.44
2023-04-04T22:34:19.340Z,98440.91
2023-04-04T22:37:22.124Z,98440.00
2023-04-04T22:40:24.968Z,98433.31
2023-04-04T22:43:27.750Z,98437.41
2023-04-04T22:46:31.814Z,98444.75
2023-04-04T22:49:38.315Z,98439.53
2023-04-04T22:52:43.580Z,98435.44
2023-04-04T22:55:46.550Z,98432.00
2023-04-04T22:58:49.257Z,98435.31
2023-04-04T23:01:52.439Z,98426.19
2023-04-04T23:04:55.233Z,98424.75
2023-04-04T23:08:01.789Z,98415.09
2023-04-04T23:11:06.866Z,98415.38
2023-04-04T23:14:09.938Z,98411.63
2023-04-04T23:17:14.918Z,98408.91
2023-04-04T23:20:18.499Z,98408.13
2023-04-04T23:23:23.946Z,98405.81
2023-04-04T23:26:27.542Z,98406.53
2023-04-04T23:29:30.526Z,98402.81
2023-04-04T23:32:33.369Z,98403.13
2023-04-04T23:35:36.189Z,98398.88
2023-04-04T23:38:38.839Z,98405.91
2023-04-04T23:41:41.684Z,98392.16
2023-04-04T23:44:44.381Z,98399.94
2023-04-04T23:47:47.094Z,98402.31
2023-04-04T23:50:50.393Z,98394.84
2023-04-04T23:53:53.221Z,98396.22
2023-04-04T23:56:58.980Z,98395.16
